Time;durP1;ratioP1;P1;durP2;ratioP2;P2;SDS_P1;SDS_P2;PMS_P1;PMS_P2;Temp;Humidity;BMP_temperature;BMP_pressure;BME280_temperature;BME280_humidity;BME280_pressure;Samples;Min_cycle;Max_cycle;Signal;HPM_P1;HPM_P2
2024/01/12 00:00:22;;;;;;;50.67;26.52;;;-1.20;99.90;;;;;;2089584;28;20144;-76
2024/01/12 00:01:24;;;;;;;51.17;25.58;;;-1.20;99.90;;;;;;2103360;28;21845;-75
2024/01/12 00:02:24;;;;;;;53.30;27.13;;;-1.20;99.90;;;;;;2103004;28;20048;-76
2024/01/12 00:03:25;;;;;;;50.92;26.38;;;-1.20;99.90;;;;;;2092733;28;20025;-75
2024/01/12 00:04:25;;;;;;;49.22;25.13;;;-1.20;99.90;;;;;;2092702;28;20025;-77
2024/01/12 00:05:26;;;;;;;52.08;26.50;;;-1.10;99.90;;;;;;2095803;28;20032;-76
2024/01/12 00:06:26;;;;;;;50.22;26.67;;;-1.20;99.90;;;;;;2093699;28;20123;-76
2024/01/12 00:07:27;;;;;;;51.20;25.88;;;-1.10;99.90;;;;;;2093476;28;20482;-76
2024/01/12 00:08:28;;;;;;;51.65;26.50;;;-1.20;99.90;;;;;;2093627;28;20016;-78
2024/01/12 00:09:29;;;;;;;48.30;25.85;;;-1.10;99.90;;;;;;2101677;28;20035;-75
2024/01/12 00:10:29;;;;;;;48.42;24.73;;;-1.20;99.90;;;;;;2101267;28;20028;-76
2024/01/12 00:11:30;;;;;;;52.90;25.77;;;-1.20;99.90;;;;;;2093700;28;20020;-76
2024/01/12 00:12:31;;;;;;;51.35;26.50;;;-1.10;99.90;;;;;;2092796;28;20024;-76
2024/01/12 00:13:31;;;;;;;51.85;26.35;;;-1.10;99.90;;;;;;2104707;28;20023;-76
2024/01/12 00:14:32;;;;;;;49.25;26.10;;;-1.10;99.90;;;;;;2093780;28;20044;-76
2024/01/12 00:15:32;;;;;;;50.17;25.27;;;-1.10;99.90;;;;;;2093738;28;20132;-77
2024/01/12 00:16:33;;;;;;;49.15;25.55;;;-1.10;99.90;;;;;;2093686;28;20450;-76
2024/01/12 00:17:33;;;;;;;49.45;25.25;;;-1.10;99.90;;;;;;2093434;28;20058;-76
2024/01/12 00:18:34;;;;;;;47.42;24.83;;;-1.10;99.90;;;;;;2100537;28;20035;-75
2024/01/12 00:19:35;;;;;;;47.70;25.27;;;-1.10;99.90;;;;;;2102455;28;20055;-75
2024/01/12 00:20:39;;;;;;;48.22;25.45;;;-1.10;99.90;;;;;;2088748;28;20025;-75
2024/01/12 00:21:42;;;;;;;49.45;25.98;;;-1.10;99.90;;;;;;2090441;28;20036;-76
2024/01/12 00:22:43;;;;;;;49.95;25.45;;;-1.10;99.90;;;;;;2101005;28;20603;-75
2024/01/12 00:23:43;;;;;;;49.75;25.42;;;-1.10;99.90;;;;;;2093475;28;20033;-76
2024/01/12 00:24:44;;;;;;;50.40;25.20;;;-1.10;99.90;;;;;;2097525;28;20024;-76
2024/01/12 00:25:44;;;;;;;51.03;25.80;;;-1.10;99.90;;;;;;2095140;28;20043;-76
2024/01/12 00:26:46;;;;;;;50.10;25.67;;;-1.10;99.90;;;;;;2099906;28;20060;-75
2024/01/12 00:27:46;;;;;;;47.13;25.35;;;-1.10;99.90;;;;;;2100491;28;20151;-76
2024/01/12 00:28:47;;;;;;;48.97;25.85;;;-1.10;99.90;;;;;;2095011;28;20032;-76
2024/01/12 00:29:48;;;;;;;48.45;25.52;;;-1.10;99.90;;;;;;2099875;28;20025;-76
2024/01/12 00:30:48;;;;;;;50.95;26.30;;;-1.10;99.90;;;;;;2103816;28;20074;-75
2024/01/12 00:31:49;;;;;;;47.80;25.02;;;-1.10;99.90;;;;;;2092674;28;20039;-76
2024/01/12 00:32:49;;;;;;;53.05;26.30;;;-1.10;99.90;;;;;;2100880;28;20048;-75
2024/01/12 00:33:50;;;;;;;48.38;25.27;;;-1.10;99.90;;;;;;2100776;28;20048;-76
2024/01/12 00:34:50;;;;;;;48.47;25.42;;;-1.10;99.90;;;;;;2095891;28;20433;-76
2024/01/12 00:35:51;;;;;;;52.05;26.13;;;-1.10;99.90;;;;;;2100903;28;20024;-77
2024/01/12 00:36:53;;;;;;;48.13;25.17;;;-1.10;99.90;;;;;;2096832;28;20020;-76
2024/01/12 00:37:54;;;;;;;49.80;25.60;;;-1.10;99.90;;;;;;2099414;28;20047;-76
2024/01/12 00:38:54;;;;;;;46.80;24.77;;;-1.10;99.90;;;;;;2101467;28;20023;-75
2024/01/12 00:39:55;;;;;;;50.85;25.38;;;-1.10;99.90;;;;;;2096413;28;20347;-75
2024/01/12 00:40:55;;;;;;;49.47;25.52;;;-1.00;99.90;;;;;;2097671;28;20029;-75
2024/01/12 00:41:56;;;;;;;48.45;25.15;;;-1.10;99.90;;;;;;2092720;28;20032;-76
2024/01/12 00:42:56;;;;;;;47.00;25.35;;;-1.10;99.90;;;;;;2092385;28;20025;-75
2024/01/12 00:43:57;;;;;;;49.22;25.75;;;-1.10;99.90;;;;;;2097532;28;20032;-75
2024/01/12 00:44:57;;;;;;;48.63;24.67;;;-1.10;99.90;;;;;;2099570;28;20020;-76
2024/01/12 00:45:58;;;;;;;48.72;24.90;;;-1.10;99.90;;;;;;2094287;28;20101;-75
2024/01/12 00:46:59;;;;;;;46.30;24.70;;;-1.00;99.90;;;;;;2080010;28;20688;-74
2024/01/12 00:47:59;;;;;;;47.20;24.48;;;-1.00;99.90;;;;;;2100571;28;20032;-76
2024/01/12 00:49:00;;;;;;;45.03;24.38;;;-1.00;99.90;;;;;;2088663;28;20021;-76
2024/01/12 00:50:01;;;;;;;47.60;25.10;;;-0.90;99.90;;;;;;2087576;28;20053;-74
2024/01/12 00:51:02;;;;;;;47.92;25.25;;;-0.90;99.90;;;;;;2092389;28;20155;-75
2024/01/12 00:52:03;;;;;;;48.42;25.10;;;-0.90;99.90;;;;;;2093364;28;20063;-77
2024/01/12 00:53:03;;;;;;;45.22;24.73;;;-0.90;99.90;;;;;;2100908;28;20081;-75
2024/01/12 00:54:04;;;;;;;48.35;25.63;;;-0.90;99.90;;;;;;2097010;28;20252;-77
2024/01/12 00:55:05;;;;;;;47.00;24.92;;;-0.90;99.90;;;;;;2096990;28;20025;-78
2024/01/12 00:56:05;;;;;;;48.28;24.75;;;-0.90;99.90;;;;;;2099881;28;20110;-78
2024/01/12 00:57:06;;;;;;;46.28;25.00;;;-0.90;99.90;;;;;;2097858;28;20095;-75
2024/01/12 00:58:06;;;;;;;48.35;25.08;;;-0.90;99.90;;;;;;2095489;28;20021;-77
2024/01/12 00:59:07;;;;;;;46.67;24.70;;;-1.00;99.90;;;;;;2093979;28;20082;-77
2024/01/12 01:00:09;;;;;;;46.90;24.63;;;-0.90;99.90;;;;;;2094505;28;23643;-76
2024/01/12 01:01:10;;;;;;;45.72;24.63;;;-0.90;99.90;;;;;;2100659;28;20111;-76
2024/01/12 01:02:10;;;;;;;49.17;25.52;;;-0.90;99.90;;;;;;2093039;28;20493;-76
2024/01/12 01:03:11;;;;;;;47.15;24.58;;;-0.90;99.90;;;;;;2097096;28;20025;-77
2024/01/12 01:04:12;;;;;;;45.90;24.73;;;-0.90;99.90;;;;;;2104750;28;20028;-77
2024/01/12 01:05:12;;;;;;;47.75;25.33;;;-0.90;99.90;;;;;;2104455;28;20062;-77
2024/01/12 01:06:13;;;;;;;47.42;24.80;;;-0.90;99.90;;;;;;2094464;28;20028;-76
2024/01/12 01:07:13;;;;;;;45.92;24.35;;;-0.90;99.90;;;;;;2101640;28;20382;-76
2024/01/12 01:08:14;;;;;;;44.30;24.13;;;-0.90;99.90;;;;;;2104367;28;20496;-76
2024/01/12 01:09:15;;;;;;;45.25;24.48;;;-0.90;99.90;;;;;;2093810;28;20226;-76
2024/01/12 01:10:15;;;;;;;47.28;24.40;;;-0.90;99.90;;;;;;2098579;28;20023;-76
2024/01/12 01:11:16;;;;;;;46.42;24.15;;;-0.90;99.90;;;;;;2100204;28;20023;-75
2024/01/12 01:12:16;;;;;;;46.60;24.73;;;-0.90;99.90;;;;;;2094267;28;20025;-75
2024/01/12 01:13:17;;;;;;;48.72;24.73;;;-0.90;99.90;;;;;;2092710;28;20028;-76
2024/01/12 01:14:18;;;;;;;48.53;24.20;;;-0.90;99.90;;;;;;2092958;28;20787;-77
2024/01/12 01:15:19;;;;;;;47.13;24.30;;;-0.90;99.90;;;;;;2091319;28;20074;-77
2024/01/12 01:16:20;;;;;;;46.72;24.60;;;-0.90;99.90;;;;;;2092682;28;20033;-77
2024/01/12 01:17:21;;;;;;;45.63;23.98;;;-0.90;99.90;;;;;;2092015;28;20025;-76
2024/01/12 01:18:22;;;;;;;48.20;25.02;;;-0.90;99.90;;;;;;2098500;28;20059;-76
2024/01/12 01:19:23;;;;;;;48.10;24.17;;;-0.90;99.90;;;;;;2092177;28;20032;-76
2024/01/12 01:20:23;;;;;;;46.03;24.02;;;-0.90;99.90;;;;;;2092152;28;20032;-76
2024/01/12 01:21:25;;;;;;;47.90;24.90;;;-0.90;99.90;;;;;;2092374;28;20486;-75
2024/01/12 01:22:28;;;;;;;46.72;25.02;;;-0.90;99.90;;;;;;2100359;28;20482;-77
2024/01/12 01:23:29;;;;;;;47.35;24.83;;;-0.90;99.90;;;;;;2101017;28;20015;-77
2024/01/12 01:24:30;;;;;;;49.75;25.52;;;-0.90;99.90;;;;;;2093794;28;20063;-77
2024/01/12 01:25:30;;;;;;;47.65;25.20;;;-0.90;99.90;;;;;;2100352;28;20081;-77
2024/01/12 01:26:31;;;;;;;48.97;24.80;;;-0.90;99.90;;;;;;2096117;28;20059;-77
2024/01/12 01:27:31;;;;;;;46.13;23.65;;;-0.90;99.90;;;;;;2095689;28;20047;-76
2024/01/12 01:28:32;;;;;;;44.60;24.33;;;-0.90;99.90;;;;;;2095003;28;20039;-77
2024/01/12 01:29:32;;;;;;;45.58;24.08;;;-0.90;99.90;;;;;;2104362;28;20465;-76
2024/01/12 01:30:33;;;;;;;45.90;23.98;;;-0.90;99.90;;;;;;2092570;28;20603;-77
2024/01/12 01:31:34;;;;;;;44.70;23.23;;;-0.90;99.90;;;;;;2089875;28;20115;-76
2024/01/12 01:32:34;;;;;;;46.05;23.75;;;-0.80;99.90;;;;;;2089620;28;20040;-74
2024/01/12 01:33:35;;;;;;;43.55;22.88;;;-0.80;99.90;;;;;;2085422;28;20033;-75
2024/01/12 01:34:35;;;;;;;44.78;23.98;;;-0.80;99.90;;;;;;2090201;28;20079;-76
2024/01/12 01:35:36;;;;;;;45.65;24.60;;;-0.80;99.90;;;;;;2100204;28;20074;-77
2024/01/12 01:36:36;;;;;;;44.70;23.65;;;-0.80;99.90;;;;;;2092651;28;20023;-75
2024/01/12 01:37:37;;;;;;;44.30;23.17;;;-0.90;99.90;;;;;;2092833;28;20028;-76
2024/01/12 01:38:37;;;;;;;45.35;23.17;;;-0.90;99.90;;;;;;2097903;28;20028;-75
2024/01/12 01:39:38;;;;;;;45.83;23.77;;;-0.90;99.90;;;;;;2100405;28;20031;-77
2024/01/12 01:40:38;;;;;;;44.47;22.77;;;-0.90;99.90;;;;;;2093596;28;20029;-75
2024/01/12 01:41:39;;;;;;;44.65;23.13;;;-0.80;99.90;;;;;;2099675;28;20024;-76
2024/01/12 01:42:40;;;;;;;45.03;23.25;;;-0.80;99.90;;;;;;2099600;28;20116;-76
2024/01/12 01:43:41;;;;;;;44.67;23.40;;;-0.80;99.90;;;;;;2087199;28;20079;-76
2024/01/12 01:44:41;;;;;;;46.55;24.10;;;-0.80;99.90;;;;;;2096497;28;20056;-76
2024/01/12 01:45:42;;;;;;;45.10;24.05;;;-0.80;99.90;;;;;;2102906;28;20100;-75
2024/01/12 01:46:43;;;;;;;44.58;23.60;;;-0.80;99.90;;;;;;2099342;28;20032;-81
2024/01/12 01:47:45;;;;;;;44.35;23.48;;;-0.80;99.90;;;;;;2100983;28;20032;-76
2024/01/12 01:48:45;;;;;;;45.50;23.50;;;-0.80;99.90;;;;;;2102210;28;20044;-82
2024/01/12 01:49:46;;;;;;;46.03;24.27;;;-0.80;99.90;;;;;;2092206;28;20025;-76
2024/01/12 01:50:47;;;;;;;44.38;23.02;;;-0.80;99.90;;;;;;2089782;28;20040;-83
2024/01/12 01:51:48;;;;;;;45.30;24.20;;;-0.80;99.90;;;;;;2096574;28;20031;-82
2024/01/12 01:52:49;;;;;;;45.80;23.08;;;-0.80;99.90;;;;;;2091747;28;20505;-83
2024/01/12 01:53:51;;;;;;;49.65;24.60;;;-0.80;99.90;;;;;;2091830;28;20029;-83
2024/01/12 01:54:53;;;;;;;42.80;23.42;;;-0.80;99.90;;;;;;2095481;28;20028;-82
2024/01/12 01:55:54;;;;;;;43.33;22.80;;;-0.80;99.90;;;;;;2100528;28;20056;-83
2024/01/12 01:56:55;;;;;;;44.75;23.42;;;-0.80;99.90;;;;;;2098104;28;20028;-83
2024/01/12 01:57:57;;;;;;;44.20;23.33;;;-0.80;99.90;;;;;;2095416;28;20145;-82
2024/01/12 01:58:58;;;;;;;46.15;23.35;;;-0.80;99.90;;;;;;2092992;28;20032;-81
2024/01/12 01:59:58;;;;;;;44.00;23.17;;;-0.80;99.90;;;;;;2095670;28;20688;-82
2024/01/12 02:00:59;;;;;;;41.95;23.05;;;-0.80;99.90;;;;;;2088631;28;20025;-81
2024/01/12 02:02:00;;;;;;;42.33;22.55;;;-0.80;99.90;;;;;;2092312;28;20027;-85
2024/01/12 02:03:01;;;;;;;45.35;24.40;;;-0.80;99.90;;;;;;2103556;28;20444;-84
2024/01/12 02:04:02;;;;;;;43.20;22.30;;;-0.80;99.90;;;;;;2104264;28;20077;-82
2024/01/12 02:05:06;;;;;;;46.47;24.05;;;-0.80;99.90;;;;;;2089283;28;20158;-83
2024/01/12 02:06:07;;;;;;;47.80;23.30;;;-0.80;99.90;;;;;;2097968;28;20039;-82
2024/01/12 02:07:07;;;;;;;44.28;22.83;;;-0.80;99.90;;;;;;2100253;28;20027;-83
2024/01/12 02:08:08;;;;;;;44.00;23.17;;;-0.90;99.90;;;;;;2091755;28;20020;-82
2024/01/12 02:09:10;;;;;;;45.95;23.40;;;-0.90;99.90;;;;;;2099594;28;20028;-81
2024/01/12 02:10:11;;;;;;;45.78;23.70;;;-0.90;99.90;;;;;;2091894;28;20040;-82
2024/01/12 02:11:11;;;;;;;46.13;22.90;;;-0.90;99.90;;;;;;2084220;28;20053;-81
2024/01/12 02:12:12;;;;;;;43.03;22.92;;;-0.90;99.90;;;;;;2095582;28;20031;-82
2024/01/12 02:13:12;;;;;;;45.38;23.20;;;-0.90;99.90;;;;;;2103806;28;20037;-83
2024/01/12 02:14:13;;;;;;;45.20;22.88;;;-0.90;99.90;;;;;;2096320;28;20031;-82
2024/01/12 02:15:14;;;;;;;47.55;23.20;;;-0.90;99.90;;;;;;2099817;28;20056;-82
2024/01/12 02:16:17;;;;;;;47.03;23.88;;;-0.90;99.90;;;;;;2100976;28;20032;-81
2024/01/12 02:17:18;;;;;;;46.33;23.85;;;-0.90;99.90;;;;;;2099349;28;20039;-81
2024/01/12 02:18:18;;;;;;;45.42;22.63;;;-0.90;99.90;;;;;;2098873;28;20051;-81
2024/01/12 02:19:19;;;;;;;45.88;23.73;;;-0.90;99.90;;;;;;2100412;28;20092;-82
2024/01/12 02:20:19;;;;;;;46.15;23.60;;;-0.90;99.90;;;;;;2083569;28;20040;-81
2024/01/12 02:21:20;;;;;;;47.45;23.92;;;-0.90;99.90;;;;;;2092070;28;20032;-82
2024/01/12 02:22:21;;;;;;;45.55;23.65;;;-0.90;99.90;;;;;;2097294;28;20122;-81
2024/01/12 02:23:21;;;;;;;49.05;23.67;;;-0.90;99.90;;;;;;2096989;28;20025;-82
2024/01/12 02:24:22;;;;;;;51.08;24.55;;;-0.90;99.90;;;;;;2096634;28;20556;-82
2024/01/12 02:25:23;;;;;;;47.45;23.33;;;-0.90;99.90;;;;;;2083678;28;20493;-81
2024/01/12 02:26:23;;;;;;;46.95;23.15;;;-0.90;99.90;;;;;;2093198;28;20028;-81
2024/01/12 02:27:24;;;;;;;46.72;24.08;;;-0.90;99.90;;;;;;2101533;28;20039;-81
2024/01/12 02:28:25;;;;;;;48.97;23.92;;;-0.90;99.90;;;;;;2096791;28;20024;-82
2024/01/12 02:29:25;;;;;;;49.47;24.50;;;-0.90;99.90;;;;;;2092646;28;20029;-82
2024/01/12 02:30:26;;;;;;;50.97;24.08;;;-0.90;99.90;;;;;;2092148;28;20029;-83
2024/01/12 02:31:28;;;;;;;50.63;24.27;;;-0.90;99.90;;;;;;2095192;28;20059;-82
2024/01/12 02:32:28;;;;;;;51.53;23.65;;;-0.90;99.90;;;;;;2092582;28;20025;-81
2024/01/12 02:33:29;;;;;;;48.95;23.45;;;-1.00;99.90;;;;;;2083275;28;20148;-81
2024/01/12 02:34:30;;;;;;;50.85;23.80;;;-1.00;99.90;;;;;;2083865;28;20120;-81
2024/01/12 02:35:30;;;;;;;51.67;24.52;;;-1.00;99.90;;;;;;2092120;28;20021;-82
2024/01/12 02:36:31;;;;;;;50.63;24.02;;;-1.00;99.90;;;;;;2101231;28;20023;-82
2024/01/12 02:37:31;;;;;;;50.75;24.48;;;-1.00;99.90;;;;;;2101736;28;20185;-83
2024/01/12 02:38:32;;;;;;;48.97;23.75;;;-1.00;99.90;;;;;;2103523;28;20481;-83
2024/01/12 02:39:32;;;;;;;50.38;24.17;;;-1.00;99.90;;;;;;2096065;28;20032;-82
2024/01/12 02:40:33;;;;;;;50.55;24.08;;;-1.00;99.90;;;;;;2095754;28;20028;-81
2024/01/12 02:41:33;;;;;;;50.45;24.38;;;-1.00;99.90;;;;;;2095438;28;20028;-81
2024/01/12 02:42:34;;;;;;;46.38;22.98;;;-1.00;99.90;;;;;;2102706;28;20565;-82
2024/01/12 02:43:34;;;;;;;51.15;23.33;;;-1.10;99.90;;;;;;2102523;28;20084;-82
2024/01/12 02:44:35;;;;;;;46.92;22.80;;;-1.10;99.90;;;;;;2089499;28;20040;-83
2024/01/12 02:45:36;;;;;;;48.17;23.38;;;-1.10;99.90;;;;;;2086940;28;20133;-81
2024/01/12 02:46:36;;;;;;;46.00;21.98;;;-1.00;99.90;;;;;;2103145;28;20468;-80
2024/01/12 02:47:37;;;;;;;47.47;23.30;;;-1.00;99.90;;;;;;2103094;28;20036;-81
2024/01/12 02:48:37;;;;;;;45.65;22.63;;;-1.00;99.90;;;;;;2098476;28;20463;-81
2024/01/12 02:49:38;;;;;;;46.58;22.92;;;-1.10;99.90;;;;;;2094213;28;20078;-80
2024/01/12 02:50:38;;;;;;;49.45;23.85;;;-1.00;99.90;;;;;;2083782;28;20041;-81
2024/01/12 02:51:39;;;;;;;45.65;22.58;;;-1.00;99.90;;;;;;2099650;28;20151;-81
2024/01/12 02:52:39;;;;;;;47.30;23.35;;;-1.00;99.90;;;;;;2100526;28;20524;-81
2024/01/12 02:53:40;;;;;;;45.15;22.17;;;-1.00;99.90;;;;;;2084917;28;20471;-82
2024/01/12 02:54:41;;;;;;;45.83;21.92;;;-1.00;99.90;;;;;;2090718;28;20044;-81
2024/01/12 02:55:41;;;;;;;45.50;22.55;;;-1.00;99.90;;;;;;2087207;28;20460;-80
2024/01/12 02:56:42;;;;;;;44.35;21.98;;;-1.00;99.90;;;;;;2097023;28;20017;-80
2024/01/12 02:57:42;;;;;;;44.60;22.40;;;-1.00;99.90;;;;;;2102332;28;20047;-82
2024/01/12 02:58:43;;;;;;;47.28;22.67;;;-1.00;99.90;;;;;;2093482;28;20052;-81
2024/01/12 02:59:43;;;;;;;45.40;22.08;;;-1.00;99.90;;;;;;2098792;28;20066;-82
2024/01/12 03:00:44;;;;;;;43.17;21.98;;;-1.00;99.90;;;;;;2098844;28;20032;-82
2024/01/12 03:01:44;;;;;;;43.10;21.83;;;-0.90;99.90;;;;;;2104897;28;20027;-80
2024/01/12 03:02:45;;;;;;;45.75;22.50;;;-1.00;99.90;;;;;;2106988;28;20078;-82
2024/01/12 03:03:45;;;;;;;42.90;21.75;;;-1.00;99.90;;;;;;2108062;28;20099;-81
2024/01/12 03:04:46;;;;;;;44.67;22.75;;;-1.00;99.90;;;;;;2104117;28;20036;-82
2024/01/12 03:05:48;;;;;;;44.85;22.58;;;-0.90;99.90;;;;;;2096218;28;20024;-81
2024/01/12 03:06:49;;;;;;;45.63;22.75;;;-0.90;99.90;;;;;;2103913;28;20103;-81
2024/01/12 03:07:49;;;;;;;44.42;21.88;;;-0.90;99.90;;;;;;2101731;28;20113;-81
2024/01/12 03:08:50;;;;;;;44.67;22.70;;;-0.90;99.90;;;;;;2097852;28;20082;-81
2024/01/12 03:09:50;;;;;;;43.53;22.27;;;-0.90;99.90;;;;;;2094059;28;20024;-80
2024/01/12 03:10:51;;;;;;;45.17;21.92;;;-0.90;99.90;;;;;;2098898;28;20020;-81
2024/01/12 03:11:52;;;;;;;43.97;21.02;;;-0.90;99.90;;;;;;2101264;28;20027;-81
2024/01/12 03:12:53;;;;;;;43.13;21.67;;;-0.90;99.90;;;;;;2094385;28;20024;-80
2024/01/12 03:13:54;;;;;;;41.88;20.58;;;-0.90;99.90;;;;;;2092155;28;20017;-80
2024/01/12 03:14:55;;;;;;;43.63;21.85;;;-0.90;99.90;;;;;;2085171;28;20631;-79
2024/01/12 03:15:55;;;;;;;41.55;21.08;;;-0.90;99.90;;;;;;2100364;28;20055;-80
2024/01/12 03:16:56;;;;;;;41.22;20.98;;;-0.90;99.90;;;;;;2093051;28;20650;-80
2024/01/12 03:17:56;;;;;;;44.28;21.58;;;-0.90;99.90;;;;;;2093412;28;20021;-81
2024/01/12 03:18:57;;;;;;;41.15;21.23;;;-0.90;99.90;;;;;;2101743;28;20641;-80
2024/01/12 03:19:58;;;;;;;40.78;20.83;;;-0.90;99.90;;;;;;2101463;28;20661;-78
2024/01/12 03:20:58;;;;;;;43.00;21.70;;;-0.90;99.90;;;;;;2098661;28;20024;-81
2024/01/12 03:21:59;;;;;;;40.47;20.58;;;-0.80;99.90;;;;;;2096686;28;20078;-81
2024/01/12 03:22:59;;;;;;;42.72;20.60;;;-0.80;99.90;;;;;;2101305;28;20023;-80
2024/01/12 03:24:00;;;;;;;41.13;20.30;;;-0.80;99.90;;;;;;2095272;28;20021;-80
2024/01/12 03:25:01;;;;;;;40.22;19.25;;;-0.80;99.90;;;;;;2100790;28;20138;-81
2024/01/12 03:26:03;;;;;;;35.70;20.02;;;-0.80;99.90;;;;;;2100107;27;20137;-81
2024/01/12 03:27:04;;;;;;;38.75;20.52;;;-0.80;99.90;;;;;;2101846;28;20051;-81
2024/01/12 03:28:05;;;;;;;35.03;18.88;;;-0.80;99.90;;;;;;2086625;28;20111;-81
2024/01/12 03:29:05;;;;;;;38.40;19.88;;;-0.70;99.90;;;;;;2089327;28;20029;-80
2024/01/12 03:30:06;;;;;;;38.28;19.05;;;-0.70;99.90;;;;;;2103320;28;20143;-76
2024/01/12 03:31:07;;;;;;;35.20;18.73;;;-0.70;99.90;;;;;;2103860;28;20404;-76
2024/01/12 03:32:07;;;;;;;37.17;19.58;;;-0.70;99.90;;;;;;2090539;28;20099;-76
2024/01/12 03:33:09;;;;;;;36.25;19.60;;;-0.80;99.90;;;;;;2099576;28;20048;-76
2024/01/12 03:34:09;;;;;;;34.65;18.73;;;-0.70;99.90;;;;;;2103851;28;20046;-76
2024/01/12 03:35:10;;;;;;;36.30;18.70;;;-0.70;99.90;;;;;;2098316;28;20021;-76
2024/01/12 03:36:11;;;;;;;36.13;18.60;;;-0.70;99.90;;;;;;2097228;28;20035;-78
2024/01/12 03:37:11;;;;;;;35.90;18.35;;;-0.70;99.90;;;;;;2093052;28;20056;-77
2024/01/12 03:38:12;;;;;;;34.75;18.20;;;-0.70;99.90;;;;;;2093649;28;20215;-76
2024/01/12 03:39:13;;;;;;;35.55;18.63;;;-0.70;99.90;;;;;;2101041;28;20034;-75
2024/01/12 03:40:14;;;;;;;34.70;18.70;;;-0.70;99.90;;;;;;2098585;28;20009;-80
2024/01/12 03:41:14;;;;;;;34.38;17.75;;;-0.60;99.90;;;;;;2101182;28;20021;-80
2024/01/12 03:42:15;;;;;;;34.25;17.88;;;-0.60;99.90;;;;;;2090893;28;20590;-80
2024/01/12 03:43:16;;;;;;;36.58;18.92;;;-0.60;99.90;;;;;;2096389;28;20029;-80
2024/01/12 03:44:16;;;;;;;34.58;17.75;;;-0.60;99.90;;;;;;2099030;28;20079;-80
2024/01/12 03:45:17;;;;;;;34.13;17.83;;;-0.60;99.90;;;;;;2097263;28;20020;-80
2024/01/12 03:46:17;;;;;;;36.35;18.17;;;-0.70;99.90;;;;;;2095671;28;20782;-81
2024/01/12 03:47:18;;;;;;;33.00;17.52;;;-0.60;99.90;;;;;;2094481;28;20036;-81
2024/01/12 03:48:18;;;;;;;33.72;18.33;;;-0.60;99.90;;;;;;2093248;28;20463;-81
2024/01/12 03:49:19;;;;;;;34.17;18.27;;;-0.60;99.90;;;;;;2100373;28;20405;-82
2024/01/12 03:50:20;;;;;;;34.15;18.13;;;-0.60;99.90;;;;;;2093129;28;20108;-82
2024/01/12 03:51:21;;;;;;;35.50;18.48;;;-0.60;99.90;;;;;;2096729;28;20482;-81
2024/01/12 03:52:21;;;;;;;36.65;18.83;;;-0.60;99.90;;;;;;2093534;28;20532;-81
2024/01/12 03:53:22;;;;;;;34.80;18.65;;;-0.60;99.90;;;;;;2090979;28;20601;-80
2024/01/12 03:54:23;;;;;;;35.80;18.10;;;-0.60;99.90;;;;;;2089971;28;20031;-81
2024/01/12 03:55:24;;;;;;;35.25;18.73;;;-0.60;99.90;;;;;;2090497;28;20100;-81
2024/01/12 03:56:24;;;;;;;33.30;17.40;;;-0.60;99.90;;;;;;2093051;28;20036;-83
2024/01/12 03:57:25;;;;;;;34.17;17.65;;;-0.60;99.90;;;;;;2087580;28;20539;-81
2024/01/12 03:58:25;;;;;;;32.40;17.73;;;-0.60;99.90;;;;;;2086849;28;20025;-81
2024/01/12 03:59:26;;;;;;;34.17;18.63;;;-0.60;99.90;;;;;;2090719;28;20044;-82
2024/01/12 04:00:26;;;;;;;34.83;18.65;;;-0.60;99.90;;;;;;2093510;28;20017;-81
2024/01/12 04:01:27;;;;;;;36.05;18.48;;;-0.60;99.90;;;;;;2102707;28;20113;-80
2024/01/12 04:02:27;;;;;;;36.13;19.55;;;-0.60;99.90;;;;;;2104590;28;20031;-81
2024/01/12 04:03:28;;;;;;;33.97;19.05;;;-0.60;99.90;;;;;;2102271;28;20389;-80
2024/01/12 04:04:28;;;;;;;45.97;23.13;;;-0.60;99.90;;;;;;2101860;28;20059;-80
2024/01/12 04:05:29;;;;;;;37.47;19.83;;;-0.60;99.90;;;;;;2084553;28;20025;-83
2024/01/12 04:06:29;;;;;;;38.08;19.55;;;-0.60;99.90;;;;;;2086475;28;20709;-79
2024/01/12 04:07:30;;;;;;;39.40;20.13;;;-0.60;99.90;;;;;;2093540;28;20032;-80
2024/01/12 04:08:30;;;;;;;38.15;19.77;;;-0.60;99.90;;;;;;2101500;28;20031;-80
2024/01/12 04:09:31;;;;;;;38.53;19.92;;;-0.60;99.90;;;;;;2094905;28;20036;-80
2024/01/12 04:10:32;;;;;;;39.00;20.25;;;-0.60;99.90;;;;;;2102478;28;20066;-80
2024/01/12 04:11:33;;;;;;;39.05;19.92;;;-0.70;99.90;;;;;;2101938;28;20047;-80
2024/01/12 04:12:33;;;;;;;39.55;20.30;;;-0.70;99.90;;;;;;2094203;28;20040;-81
2024/01/12 04:13:34;;;;;;;39.33;20.40;;;-0.70;99.90;;;;;;2106673;28;20119;-81
2024/01/12 04:14:34;;;;;;;38.10;19.70;;;-0.70;99.90;;;;;;2095769;28;20496;-80
2024/01/12 04:15:35;;;;;;;40.63;20.55;;;-0.70;99.90;;;;;;2095724;28;20036;-80
2024/01/12 04:16:35;;;;;;;39.53;20.77;;;-0.70;99.90;;;;;;2086353;28;20040;-80
2024/01/12 04:17:36;;;;;;;43.00;20.67;;;-0.70;99.90;;;;;;2102117;28;20056;-80
2024/01/12 04:18:37;;;;;;;37.20;19.90;;;-0.70;99.90;;;;;;2103533;28;20027;-81
2024/01/12 04:19:38;;;;;;;38.05;20.27;;;-0.70;99.90;;;;;;2077724;28;20033;-81
2024/01/12 04:20:38;;;;;;;40.28;21.00;;;-0.70;99.90;;;;;;2085450;28;20067;-81
2024/01/12 04:21:39;;;;;;;39.40;20.63;;;-0.70;99.90;;;;;;2105756;28;20031;-79
2024/01/12 04:22:39;;;;;;;39.13;20.38;;;-0.70;99.90;;;;;;2094438;28;20039;-81
2024/01/12 04:23:40;;;;;;;37.72;19.80;;;-0.70;99.90;;;;;;2101588;28;20029;-81
2024/01/12 04:24:40;;;;;;;37.50;19.80;;;-0.70;99.90;;;;;;2101595;28;20032;-81
2024/01/12 04:25:41;;;;;;;40.58;20.20;;;-0.70;99.90;;;;;;2085769;28;20040;-80
2024/01/12 04:26:42;;;;;;;35.30;19.73;;;-0.70;99.90;;;;;;2085871;28;20090;-81
2024/01/12 04:27:43;;;;;;;38.63;20.67;;;-0.70;99.90;;;;;;2095347;28;20034;-81
2024/01/12 04:28:43;;;;;;;39.60;21.05;;;-0.70;99.90;;;;;;2099399;28;20035;-81
2024/01/12 04:29:44;;;;;;;39.00;19.48;;;-0.70;99.90;;;;;;2101554;28;20093;-81
2024/01/12 04:30:44;;;;;;;38.42;20.27;;;-0.70;99.90;;;;;;2102892;28;20516;-80
2024/01/12 04:31:45;;;;;;;38.33;19.80;;;-0.70;99.90;;;;;;2080790;28;20033;-81
2024/01/12 04:32:46;;;;;;;37.72;19.95;;;-0.60;99.90;;;;;;2087113;28;20048;-81
2024/01/12 04:33:46;;;;;;;37.55;20.17;;;-0.60;99.90;;;;;;2092038;28;20032;-81
2024/01/12 04:34:47;;;;;;;41.35;20.77;;;-0.60;99.90;;;;;;2098514;28;20055;-81
2024/01/12 04:35:47;;;;;;;40.10;20.42;;;-0.70;99.90;;;;;;2089313;28;20029;-81
2024/01/12 04:36:48;;;;;;;37.33;19.65;;;-0.70;99.90;;;;;;2094583;28;20024;-81
2024/01/12 04:37:48;;;;;;;40.10;20.85;;;-0.70;99.90;;;;;;2098896;28;20036;-80
2024/01/12 04:38:49;;;;;;;37.17;19.80;;;-0.70;99.90;;;;;;2098961;28;20028;-81
2024/01/12 04:39:49;;;;;;;38.33;20.20;;;-0.60;99.90;;;;;;2099736;28;20056;-81
2024/01/12 04:40:50;;;;;;;39.10;20.88;;;-0.60;99.90;;;;;;2087886;28;20392;-80
2024/01/12 04:41:51;;;;;;;39.53;20.42;;;-0.70;99.90;;;;;;2086139;28;20013;-80
2024/01/12 04:42:51;;;;;;;38.50;20.17;;;-0.60;99.90;;;;;;2095784;28;20494;-81
2024/01/12 04:43:52;;;;;;;39.80;20.10;;;-0.60;99.90;;;;;;2092497;28;20505;-81
2024/01/12 04:44:52;;;;;;;38.83;20.38;;;-0.60;99.90;;;;;;2098290;28;20029;-81
2024/01/12 04:45:53;;;;;;;37.25;20.25;;;-0.60;99.90;;;;;;2092704;28;20021;-83
2024/01/12 04:46:53;;;;;;;38.33;20.17;;;-0.60;99.90;;;;;;2078708;28;20040;-80
2024/01/12 04:47:54;;;;;;;38.45;19.83;;;-0.60;99.90;;;;;;2078812;28;20096;-80
2024/01/12 04:48:54;;;;;;;40.38;21.17;;;-0.60;99.90;;;;;;2097822;28;20029;-80
2024/01/12 04:49:55;;;;;;;40.45;20.58;;;-0.60;99.90;;;;;;2101426;28;20007;-81
2024/01/12 04:50:56;;;;;;;38.75;20.33;;;-0.60;99.90;;;;;;2093655;28;20107;-80
2024/01/12 04:51:57;;;;;;;40.33;20.73;;;-0.60;99.90;;;;;;2099739;28;20120;-80
2024/01/12 04:52:57;;;;;;;38.60;20.58;;;-0.60;99.90;;;;;;2097046;28;20403;-80
2024/01/12 04:53:58;;;;;;;40.88;21.10;;;-0.60;99.90;;;;;;2098637;28;20390;-80
2024/01/12 04:54:59;;;;;;;39.97;20.35;;;-0.60;99.90;;;;;;2092673;28;20025;-79
2024/01/12 04:56:00;;;;;;;38.90;20.17;;;-0.60;99.90;;;;;;2092729;28;20624;-79
2024/01/12 04:57:00;;;;;;;38.55;20.52;;;-0.60;99.90;;;;;;2097343;28;20482;-80
2024/01/12 04:58:03;;;;;;;38.53;20.23;;;-0.60;99.90;;;;;;2102864;28;20027;-80
2024/01/12 04:59:03;;;;;;;38.55;20.20;;;-0.60;99.90;;;;;;2105523;28;20042;-78
2024/01/12 05:00:05;;;;;;;39.28;20.85;;;-0.60;99.90;;;;;;2107357;28;20020;-78
2024/01/12 05:01:06;;;;;;;38.22;20.40;;;-0.60;99.90;;;;;;2100282;28;20040;-77
2024/01/12 05:02:07;;;;;;;38.92;19.70;;;-0.60;99.90;;;;;;2097999;28;20020;-78
2024/01/12 05:03:07;;;;;;;38.63;20.42;;;-0.60;99.90;;;;;;2104141;28;21006;-79
2024/01/12 05:04:08;;;;;;;39.20;20.70;;;-0.60;99.90;;;;;;2096495;28;20497;-80
2024/01/12 05:05:08;;;;;;;39.53;20.55;;;-0.60;99.90;;;;;;2100686;28;20024;-80
2024/01/12 05:06:10;;;;;;;40.25;21.75;;;-0.60;99.90;;;;;;2098413;28;20028;-80
2024/01/12 05:07:10;;;;;;;40.28;20.88;;;-0.60;99.90;;;;;;2098013;28;20028;-80
2024/01/12 05:08:11;;;;;;;39.60;20.02;;;-0.60;99.90;;;;;;2095039;28;20025;-80